Time;durP1;ratioP1;P1;durP2;ratioP2;P2;SDS_P1;SDS_P2;PMS_P1;PMS_P2;Temp;Humidity;BMP_temperature;BMP_pressure;BME280_temperature;BME280_humidity;BME280_pressure;Samples;Min_cycle;Max_cycle;Signal;HPM_P1;HPM_P2
2023/09/06 00:00:28;;;;;;;3.10;3.00;;;;;;;;;;4994492;28;20429;-67
2023/09/06 00:02:57;;;;;;;4.93;3.10;;;;;;;;;;4994882;28;20409;-67
2023/09/06 00:05:23;;;;;;;2.97;2.77;;;;;;;;;;4994447;28;20412;-67
2023/09/06 00:07:49;;;;;;;3.47;3.30;;;;;;;;;;4994733;28;20479;-67
2023/09/06 00:10:17;;;;;;;5.20;3.20;;;;;;;;;;4994727;28;20485;-67
2023/09/06 00:12:45;;;;;;;2.63;2.43;;;;;;;;;;4994878;28;20460;-67
2023/09/06 00:15:11;;;;;;;3.10;2.80;;;;;;;;;;4994828;28;20484;-66
2023/09/06 00:17:38;;;;;;;3.20;3.10;;;;;;;;;;4994779;28;20410;-66
2023/09/06 00:20:21;;;;;;;5.90;2.90;;;;;;;;;;4994815;28;20414;-67
2023/09/06 00:22:54;;;;;;;3.07;2.97;;;;;;;;;;4994353;28;20904;-67
2023/09/06 00:25:20;;;;;;;3.30;3.20;;;;;;;;;;4994226;28;20432;-66
2023/09/06 00:27:46;;;;;;;3.00;2.90;;;;;;;;;;4994630;28;20648;-66
2023/09/06 00:30:12;;;;;;;3.50;3.20;;;;;;;;;;4994340;28;20501;-67
2023/09/06 00:32:41;;;;;;;3.90;3.60;;;;;;;;;;4994348;28;20971;-67
2023/09/06 00:35:07;;;;;;;3.60;3.40;;;;;;;;;;4994209;28;20804;-67
2023/09/06 00:37:40;;;;;;;4.50;3.27;;;;;;;;;;4992984;28;20443;-66
2023/09/06 00:40:21;;;;;;;2.90;2.70;;;;;;;;;;4994241;28;20419;-67
2023/09/06 00:42:53;;;;;;;3.27;3.00;;;;;;;;;;4994010;28;20919;-66
2023/09/06 00:45:23;;;;;;;13.30;3.70;;;;;;;;;;4994124;28;20899;-67
2023/09/06 00:47:52;;;;;;;2.93;2.83;;;;;;;;;;4993438;28;20477;-67
2023/09/06 00:50:18;;;;;;;3.60;3.30;;;;;;;;;;4993718;28;20438;-66
2023/09/06 00:52:45;;;;;;;3.30;3.20;;;;;;;;;;4993734;28;20440;-66
2023/09/06 00:55:11;;;;;;;4.03;3.30;;;;;;;;;;4994323;28;20414;-66
2023/09/06 00:57:40;;;;;;;3.80;3.13;;;;;;;;;;4993710;28;20450;-66
2023/09/06 01:00:08;;;;;;;2.90;2.80;;;;;;;;;;4993715;28;20502;-66
2023/09/06 01:02:34;;;;;;;3.13;2.90;;;;;;;;;;4993265;28;20426;-66
2023/09/06 01:05:00;;;;;;;3.80;3.37;;;;;;;;;;4993598;28;20533;-67
2023/09/06 01:07:28;;;;;;;3.50;3.30;;;;;;;;;;4993644;28;20440;-67
2023/09/06 01:09:54;;;;;;;3.60;3.50;;;;;;;;;;4993772;28;20777;-67
2023/09/06 01:12:20;;;;;;;4.73;3.20;;;;;;;;;;4993530;28;20453;-66
2023/09/06 01:14:46;;;;;;;3.43;3.30;;;;;;;;;;4993519;28;20426;-66
2023/09/06 01:17:18;;;;;;;3.60;3.40;;;;;;;;;;4992344;28;20530;-66
2023/09/06 01:19:45;;;;;;;3.50;3.30;;;;;;;;;;4993478;28;20424;-66
2023/09/06 01:22:17;;;;;;;5.90;3.60;;;;;;;;;;4993341;28;20543;-66
2023/09/06 01:24:44;;;;;;;6.47;3.57;;;;;;;;;;4993349;28;20470;-66
2023/09/06 01:27:12;;;;;;;6.20;3.30;;;;;;;;;;4993302;28;21553;-66
2023/09/06 01:29:38;;;;;;;7.90;3.20;;;;;;;;;;4993266;28;20430;-66
2023/09/06 01:32:05;;;;;;;4.10;3.60;;;;;;;;;;4991948;28;20443;-66
2023/09/06 01:34:32;;;;;;;5.50;3.03;;;;;;;;;;4993202;28;20423;-66
2023/09/06 01:36:58;;;;;;;3.10;3.03;;;;;;;;;;4992870;28;20953;-66
2023/09/06 01:39:24;;;;;;;8.83;3.27;;;;;;;;;;4993200;28;20906;-66
2023/09/06 01:41:52;;;;;;;4.40;4.00;;;;;;;;;;4993181;28;20444;-66
2023/09/06 01:44:18;;;;;;;3.73;3.60;;;;;;;;;;4992770;28;20965;-66
2023/09/06 01:46:45;;;;;;;3.70;3.60;;;;;;;;;;4993059;28;20531;-66
2023/09/06 01:49:11;;;;;;;3.27;3.17;;;;;;;;;;4992996;28;20469;-66
2023/09/06 01:51:37;;;;;;;4.70;4.00;;;;;;;;;;4993000;28;20408;-66
2023/09/06 01:54:04;;;;;;;5.10;3.60;;;;;;;;;;4992984;28;20438;-66
2023/09/06 01:56:32;;;;;;;3.73;3.57;;;;;;;;;;4992954;28;20431;-66
2023/09/06 01:58:58;;;;;;;3.20;3.10;;;;;;;;;;4993178;28;20499;-66
2023/09/06 02:01:24;;;;;;;2.90;2.80;;;;;;;;;;4993038;28;20905;-66
2023/09/06 02:03:50;;;;;;;3.43;3.33;;;;;;;;;;4992852;28;20467;-66
2023/09/06 02:06:16;;;;;;;3.60;3.30;;;;;;;;;;4992805;28;20555;-66
2023/09/06 02:08:42;;;;;;;3.57;3.30;;;;;;;;;;4992521;28;20414;-66
2023/09/06 02:11:08;;;;;;;4.43;3.20;;;;;;;;;;4996734;28;20419;-66
2023/09/06 02:13:34;;;;;;;3.77;3.60;;;;;;;;;;4997156;28;20481;-66
2023/09/06 02:16:04;;;;;;;3.20;3.10;;;;;;;;;;4997208;28;20884;-66
2023/09/06 02:18:30;;;;;;;3.40;3.20;;;;;;;;;;4997342;28;20527;-66
2023/09/06 02:20:56;;;;;;;3.17;2.97;;;;;;;;;;4996275;28;20419;-66
2023/09/06 02:23:22;;;;;;;4.10;3.63;;;;;;;;;;4996626;28;20466;-66
2023/09/06 02:25:53;;;;;;;3.30;3.03;;;;;;;;;;4996511;28;20418;-66
2023/09/06 02:28:21;;;;;;;3.17;3.07;;;;;;;;;;4996752;28;20445;-66
2023/09/06 02:30:47;;;;;;;3.93;3.53;;;;;;;;;;4996517;28;20406;-66
2023/09/06 02:33:14;;;;;;;2.67;2.57;;;;;;;;;;4996904;28;20473;-66
2023/09/06 02:35:44;;;;;;;3.47;3.17;;;;;;;;;;4996199;28;20822;-66
2023/09/06 02:38:13;;;;;;;4.00;3.27;;;;;;;;;;4996405;28;20435;-66
2023/09/06 02:40:42;;;;;;;8.93;3.20;;;;;;;;;;4996473;28;20416;-66
2023/09/06 02:43:10;;;;;;;10.33;3.43;;;;;;;;;;4995128;28;20479;-66
2023/09/06 02:45:36;;;;;;;3.43;2.97;;;;;;;;;;4996251;28;20427;-66
2023/09/06 02:48:15;;;;;;;2.83;2.73;;;;;;;;;;4995965;28;20810;-66
2023/09/06 02:50:44;;;;;;;2.70;2.50;;;;;;;;;;4996330;28;20406;-66
2023/09/06 02:53:22;;;;;;;5.60;2.93;;;;;;;;;;4996056;28;20433;-66
2023/09/06 02:55:51;;;;;;;2.97;2.87;;;;;;;;;;4996465;28;20935;-66
2023/09/06 02:58:18;;;;;;;3.50;3.40;;;;;;;;;;4996338;28;20415;-66
2023/09/06 03:00:49;;;;;;;5.77;2.97;;;;;;;;;;4996386;28;20836;-66
2023/09/06 03:03:17;;;;;;;6.03;3.47;;;;;;;;;;4995940;28;20834;-66
2023/09/06 03:05:43;;;;;;;3.53;3.33;;;;;;;;;;4995779;28;20415;-66
2023/09/06 03:08:09;;;;;;;3.70;3.50;;;;;;;;;;4996026;28;20474;-66
2023/09/06 03:10:35;;;;;;;3.50;3.40;;;;;;;;;;4995586;28;20855;-66
2023/09/06 03:13:01;;;;;;;3.43;3.33;;;;;;;;;;4994762;28;20907;-66
2023/09/06 03:15:34;;;;;;;4.03;3.63;;;;;;;;;;4995438;28;20493;-66
2023/09/06 03:18:00;;;;;;;6.20;3.47;;;;;;;;;;4995818;28;20487;-66
2023/09/06 03:20:33;;;;;;;3.83;3.10;;;;;;;;;;4995672;28;20441;-66
2023/09/06 03:23:00;;;;;;;3.30;3.10;;;;;;;;;;4995524;28;20465;-66
2023/09/06 03:25:29;;;;;;;3.50;3.40;;;;;;;;;;4995918;28;20410;-66
2023/09/06 03:28:00;;;;;;;3.53;3.23;;;;;;;;;;4994498;28;20459;-66
2023/09/06 03:30:30;;;;;;;3.10;2.80;;;;;;;;;;4995632;28;20767;-66
2023/09/06 03:32:58;;;;;;;4.93;3.60;;;;;;;;;;4995894;28;20442;-66
2023/09/06 03:35:24;;;;;;;4.03;3.70;;;;;;;;;;4995131;28;20430;-66
2023/09/06 03:37:50;;;;;;;5.50;3.60;;;;;;;;;;4995219;28;20410;-66
2023/09/06 03:40:28;;;;;;;5.17;3.23;;;;;;;;;;4994726;28;20457;-66
2023/09/06 03:42:55;;;;;;;3.37;3.20;;;;;;;;;;4995283;28;20855;-66
2023/09/06 03:45:27;;;;;;;3.90;2.90;;;;;;;;;;4995372;28;20411;-66
2023/09/06 03:47:55;;;;;;;5.70;3.07;;;;;;;;;;4994612;28;20433;-66
2023/09/06 03:50:24;;;;;;;3.60;3.50;;;;;;;;;;4994958;28;21360;-66
2023/09/06 03:52:52;;;;;;;3.40;3.30;;;;;;;;;;4995114;28;20412;-66
2023/09/06 03:55:18;;;;;;;4.40;4.03;;;;;;;;;;4995096;28;20433;-66
2023/09/06 03:57:44;;;;;;;3.57;3.20;;;;;;;;;;4995204;28;20913;-66
2023/09/06 04:02:56;;;;;;;3.30;3.20;;;;;;;;;;4995070;28;20446;-66
2023/09/06 04:05:25;;;;;;;3.03;2.93;;;;;;;;;;4994601;28;20408;-66
2023/09/06 04:07:58;;;;;;;3.47;3.27;;;;;;;;;;4994931;28;20448;-66
2023/09/06 04:10:27;;;;;;;7.40;3.17;;;;;;;;;;4994782;28;20436;-66
2023/09/06 04:12:55;;;;;;;3.57;3.27;;;;;;;;;;4994929;28;20410;-66
2023/09/06 04:15:24;;;;;;;3.50;3.30;;;;;;;;;;4995047;28;20419;-67
2023/09/06 04:17:59;;;;;;;4.10;3.70;;;;;;;;;;4993252;28;20428;-67
2023/09/06 04:20:35;;;;;;;3.03;2.93;;;;;;;;;;4994557;28;20911;-67
2023/09/06 04:23:01;;;;;;;3.10;3.00;;;;;;;;;;4994425;28;20495;-67
2023/09/06 04:25:27;;;;;;;4.63;3.73;;;;;;;;;;4994305;28;20750;-67
2023/09/06 04:27:57;;;;;;;7.53;3.67;;;;;;;;;;4994503;28;20437;-65
2023/09/06 04:30:28;;;;;;;4.63;3.60;;;;;;;;;;4994523;28;20407;-65
2023/09/06 04:32:54;;;;;;;4.97;3.93;;;;;;;;;;4994320;28;20810;-65
2023/09/06 04:35:22;;;;;;;3.87;3.57;;;;;;;;;;4994251;28;20423;-65
2023/09/06 04:37:48;;;;;;;4.83;4.10;;;;;;;;;;4994285;28;20413;-66
2023/09/06 04:40:17;;;;;;;4.73;3.60;;;;;;;;;;4994310;28;20417;-66
2023/09/06 04:42:43;;;;;;;4.07;3.83;;;;;;;;;;4994033;28;20425;-66
2023/09/06 04:45:10;;;;;;;4.90;4.50;;;;;;;;;;4993924;28;20487;-66
2023/09/06 04:47:44;;;;;;;7.60;3.63;;;;;;;;;;4993718;28;20436;-66
2023/09/06 04:50:13;;;;;;;4.60;4.30;;;;;;;;;;4993963;28;20432;-66
2023/09/06 04:52:46;;;;;;;4.13;3.93;;;;;;;;;;4994003;28;20471;-66
2023/09/06 04:55:15;;;;;;;4.00;3.70;;;;;;;;;;4993786;28;20896;-66
2023/09/06 04:57:45;;;;;;;3.30;3.17;;;;;;;;;;4992391;28;20436;-66
2023/09/06 05:00:17;;;;;;;4.00;3.80;;;;;;;;;;4993671;28;20436;-66
2023/09/06 05:02:46;;;;;;;3.53;3.33;;;;;;;;;;4993757;28;20516;-65
2023/09/06 05:05:14;;;;;;;4.13;3.80;;;;;;;;;;4993723;28;20465;-65
2023/09/06 05:07:40;;;;;;;3.90;3.80;;;;;;;;;;4993550;28;20417;-65
2023/09/06 05:10:09;;;;;;;3.87;3.77;;;;;;;;;;4993856;28;20448;-65
2023/09/06 05:12:36;;;;;;;9.90;4.60;;;;;;;;;;4993425;28;20413;-65
2023/09/06 05:15:02;;;;;;;9.10;3.70;;;;;;;;;;4993528;28;21039;-65
2023/09/06 05:17:28;;;;;;;4.87;3.67;;;;;;;;;;4993479;28;20486;-65
2023/09/06 05:19:57;;;;;;;7.23;4.00;;;;;;;;;;4993070;28;20513;-65
2023/09/06 05:22:22;;;;;;;6.90;4.13;;;;;;;;;;4993072;28;20943;-65
2023/09/06 05:24:51;;;;;;;3.63;3.10;;;;;;;;;;4993253;28;20480;-65
2023/09/06 05:27:17;;;;;;;3.90;3.70;;;;;;;;;;4993521;28;20512;-65
2023/09/06 05:29:44;;;;;;;4.53;3.80;;;;;;;;;;4993018;28;20417;-65
2023/09/06 05:32:11;;;;;;;4.10;3.90;;;;;;;;;;4993309;28;20412;-65
2023/09/06 05:34:36;;;;;;;4.67;3.83;;;;;;;;;;4992747;28;20447;-65
2023/09/06 05:37:03;;;;;;;7.80;3.57;;;;;;;;;;4993356;28;20421;-66
2023/09/06 05:39:28;;;;;;;5.10;4.03;;;;;;;;;;4993158;28;20440;-66
2023/09/06 05:41:54;;;;;;;5.23;4.13;;;;;;;;;;4992886;28;20852;-65
2023/09/06 05:44:20;;;;;;;5.60;4.27;;;;;;;;;;4992403;28;20515;-65
2023/09/06 05:46:47;;;;;;;5.93;4.03;;;;;;;;;;4993006;28;20412;-65
2023/09/06 05:49:15;;;;;;;5.13;4.17;;;;;;;;;;4992673;28;20496;-65
2023/09/06 05:51:41;;;;;;;4.60;2.97;;;;;;;;;;4993322;28;20923;-65
2023/09/06 05:54:09;;;;;;;5.07;3.80;;;;;;;;;;4992838;28;20448;-65
2023/09/06 05:56:35;;;;;;;4.17;3.87;;;;;;;;;;4992779;28;20424;-65
2023/09/06 05:59:01;;;;;;;10.47;9.47;;;;;;;;;;4992953;28;20441;-65
2023/09/06 06:01:27;;;;;;;7.47;6.87;;;;;;;;;;4992896;28;20418;-65
2023/09/06 06:03:53;;;;;;;4.30;3.13;;;;;;;;;;4992958;28;20830;-65
2023/09/06 06:06:20;;;;;;;3.30;3.20;;;;;;;;;;4992510;28;20412;-65
2023/09/06 06:08:46;;;;;;;16.80;13.30;;;;;;;;;;4992253;28;20835;-65
2023/09/06 06:11:15;;;;;;;12.43;11.13;;;;;;;;;;4992781;28;20898;-65
2023/09/06 06:13:41;;;;;;;4.57;4.27;;;;;;;;;;4992234;28;20924;-65
2023/09/06 06:16:08;;;;;;;3.87;3.67;;;;;;;;;;4992914;28;20906;-65
2023/09/06 06:18:34;;;;;;;6.00;4.67;;;;;;;;;;4992334;28;20797;-65
2023/09/06 06:21:00;;;;;;;3.67;3.53;;;;;;;;;;4991278;28;20428;-65
2023/09/06 06:23:26;;;;;;;9.00;4.07;;;;;;;;;;4992907;28;20479;-65
2023/09/06 06:25:52;;;;;;;6.37;4.53;;;;;;;;;;4992106;28;20414;-65
2023/09/06 06:28:18;;;;;;;3.83;3.37;;;;;;;;;;4992805;28;20460;-65
2023/09/06 06:30:44;;;;;;;4.07;3.80;;;;;;;;;;4993070;28;20761;-65
2023/09/06 06:33:10;;;;;;;3.90;3.80;;;;;;;;;;4991430;28;20524;-65
2023/09/06 06:35:36;;;;;;;4.40;3.60;;;;;;;;;;4992820;28;20427;-65
2023/09/06 06:38:02;;;;;;;4.33;3.93;;;;;;;;;;4991594;28;20431;-65
2023/09/06 06:40:28;;;;;;;3.80;3.60;;;;;;;;;;4992878;28;20435;-65
2023/09/06 06:42:54;;;;;;;11.07;3.40;;;;;;;;;;4992717;28;20477;-65
2023/09/06 06:45:20;;;;;;;3.30;3.20;;;;;;;;;;4992647;28;20943;-65
2023/09/06 06:47:46;;;;;;;8.83;3.10;;;;;;;;;;4992132;28;20542;-65
2023/09/06 06:50:14;;;;;;;3.60;3.30;;;;;;;;;;4975279;28;20447;-65
2023/09/06 06:52:44;;;;;;;18.30;14.60;;;;;;;;;;4992598;28;20412;-65
2023/09/06 06:55:10;;;;;;;5.30;5.00;;;;;;;;;;4992861;28;20931;-65
2023/09/06 06:57:37;;;;;;;9.43;3.60;;;;;;;;;;4996056;28;20439;-65
2023/09/06 07:00:06;;;;;;;6.13;4.00;;;;;;;;;;4996048;28;20538;-65
2023/09/06 07:02:34;;;;;;;4.07;3.63;;;;;;;;;;4996146;28;20788;-65
2023/09/06 07:05:00;;;;;;;8.27;4.70;;;;;;;;;;4994380;28;20599;-65
2023/09/06 07:07:26;;;;;;;8.17;7.63;;;;;;;;;;4996208;28;20431;-65
2023/09/06 07:09:52;;;;;;;4.43;2.77;;;;;;;;;;4995808;28;20945;-65
2023/09/06 07:12:18;;;;;;;3.50;3.37;;;;;;;;;;4995914;28;20424;-65
2023/09/06 07:14:44;;;;;;;4.40;3.60;;;;;;;;;;4995740;28;20524;-65
2023/09/06 07:17:13;;;;;;;2.93;2.73;;;;;;;;;;4995815;28;20410;-65
2023/09/06 07:19:38;;;;;;;3.57;3.33;;;;;;;;;;4995801;28;20955;-65
2023/09/06 07:22:04;;;;;;;3.77;3.57;;;;;;;;;;4995559;28;20430;-65
2023/09/06 07:24:33;;;;;;;5.50;4.20;;;;;;;;;;4994357;28;20532;-65
2023/09/06 07:26:59;;;;;;;7.17;3.90;;;;;;;;;;4995638;28;20809;-65
2023/09/06 07:29:25;;;;;;;4.03;3.80;;;;;;;;;;4995629;28;20523;-65
2023/09/06 07:31:51;;;;;;;15.60;13.20;;;;;;;;;;4995734;28;20408;-65
2023/09/06 07:34:17;;;;;;;4.20;4.03;;;;;;;;;;4994188;28;20528;-65
2023/09/06 07:36:45;;;;;;;21.97;4.30;;;;;;;;;;4995548;28;20464;-65
2023/09/06 07:39:11;;;;;;;6.70;3.83;;;;;;;;;;4995264;28;20425;-65
2023/09/06 07:41:37;;;;;;;5.03;4.60;;;;;;;;;;4995432;28;20410;-65
2023/09/06 07:44:06;;;;;;;4.10;3.77;;;;;;;;;;4995158;28;20841;-65
2023/09/06 07:46:34;;;;;;;4.40;4.10;;;;;;;;;;4994059;28;20975;-65
2023/09/06 07:49:00;;;;;;;5.47;4.70;;;;;;;;;;4993766;28;21066;-65
2023/09/06 07:51:26;;;;;;;4.60;4.20;;;;;;;;;;4995346;28;20410;-65
2023/09/06 07:53:52;;;;;;;21.83;18.03;;;;;;;;;;4995074;28;20448;-65
2023/09/06 07:56:18;;;;;;;5.47;4.57;;;;;;;;;;4995038;28;20450;-65
2023/09/06 07:58:44;;;;;;;5.37;4.93;;;;;;;;;;4995031;28;20429;-65
2023/09/06 08:01:10;;;;;;;8.90;4.50;;;;;;;;;;4994922;28;20439;-65
2023/09/06 08:03:36;;;;;;;5.47;5.03;;;;;;;;;;4993880;28;20464;-65
2023/09/06 08:06:04;;;;;;;9.63;7.83;;;;;;;;;;4994936;28;20494;-65
2023/09/06 08:08:30;;;;;;;8.30;5.10;;;;;;;;;;4992817;28;20981;-64
2023/09/06 08:10:56;;;;;;;5.67;5.27;;;;;;;;;;4994830;28;20511;-65
2023/09/06 08:13:22;;;;;;;7.70;4.80;;;;;;;;;;4994994;28;20459;-65
2023/09/06 08:15:50;;;;;;;5.30;4.80;;;;;;;;;;4993509;28;20846;-65
2023/09/06 08:18:16;;;;;;;5.57;4.60;;;;;;;;;;4994743;28;20483;-65
2023/09/06 08:20:42;;;;;;;8.73;5.20;;;;;;;;;;4994745;28;20448;-65
2023/09/06 08:23:08;;;;;;;4.60;4.40;;;;;;;;;;4994583;28;20835;-65
2023/09/06 08:25:34;;;;;;;4.87;4.47;;;;;;;;;;4994717;28;20411;-65
2023/09/06 08:28:00;;;;;;;7.47;4.40;;;;;;;;;;4994469;28;20448;-65
2023/09/06 08:30:27;;;;;;;8.10;4.30;;;;;;;;;;4994428;28;20926;-65
2023/09/06 08:32:53;;;;;;;5.57;5.07;;;;;;;;;;4994494;28;20870;-65
2023/09/06 08:35:19;;;;;;;5.23;4.53;;;;;;;;;;4994317;28;20587;-65
2023/09/06 08:37:47;;;;;;;5.07;4.60;;;;;;;;;;4994194;28;20415;-65
2023/09/06 08:40:15;;;;;;;4.27;4.03;;;;;;;;;;4994207;28;20445;-65
2023/09/06 08:42:42;;;;;;;3.80;3.57;;;;;;;;;;4994158;28;20434;-65
2023/09/06 08:45:11;;;;;;;4.33;3.70;;;;;;;;;;4994062;28;20538;-65
2023/09/06 08:47:41;;;;;;;4.00;3.20;;;;;;;;;;4994002;28;20463;-65
2023/09/06 08:50:09;;;;;;;5.40;3.80;;;;;;;;;;4993772;28;20528;-64
2023/09/06 08:52:36;;;;;;;3.83;3.50;;;;;;;;;;4993895;28;20422;-66
2023/09/06 08:55:03;;;;;;;10.93;6.80;;;;;;;;;;4994190;28;20532;-66
2023/09/06 08:57:29;;;;;;;4.50;3.67;;;;;;;;;;4993992;28;20468;-66
2023/09/06 08:59:55;;;;;;;3.77;3.47;;;;;;;;;;4993901;28;20512;-66
2023/09/06 09:02:21;;;;;;;4.30;3.90;;;;;;;;;;4993902;28;20483;-65
2023/09/06 09:04:49;;;;;;;4.10;3.80;;;;;;;;;;4993781;28;20516;-65
2023/09/06 09:07:18;;;;;;;4.00;3.80;;;;;;;;;;4993769;28;20414;-65
2023/09/06 09:09:56;;;;;;;6.37;5.87;;;;;;;;;;4993617;28;20527;-65
2023/09/06 09:12:32;;;;;;;4.23;3.90;;;;;;;;;;4993495;28;20970;-65
2023/09/06 09:14:58;;;;;;;8.57;4.97;;;;;;;;;;4993779;28;20452;-65
2023/09/06 09:17:25;;;;;;;4.47;4.17;;;;;;;;;;4993731;28;20905;-66
2023/09/06 09:19:52;;;;;;;5.40;4.97;;;;;;;;;;4993492;28;20944;-64
2023/09/06 09:22:22;;;;;;;4.77;4.37;;;;;;;;;;4993350;28;20930;-63
2023/09/06 09:24:50;;;;;;;3.80;3.50;;;;;;;;;;4993374;28;20481;-63
2023/09/06 09:27:19;;;;;;;3.50;3.33;;;;;;;;;;4993363;28;20448;-63
2023/09/06 09:29:47;;;;;;;4.67;4.20;;;;;;;;;;4993834;28;20413;-63
2023/09/06 09:32:19;;;;;;;4.53;4.20;;;;;;;;;;4993330;28;20416;-63
2023/09/06 09:34:45;;;;;;;4.87;4.57;;;;;;;;;;4993204;28;20414;-63
2023/09/06 09:37:11;;;;;;;4.23;3.83;;;;;;;;;;4993365;28;20555;-63
2023/09/06 09:39:37;;;;;;;9.20;6.73;;;;;;;;;;4993366;28;20425;-63
2023/09/06 09:42:04;;;;;;;6.37;4.57;;;;;;;;;;4991904;28;20446;-63
2023/09/06 09:44:30;;;;;;;4.33;4.10;;;;;;;;;;4993138;28;20542;-63
2023/09/06 09:47:02;;;;;;;4.93;4.33;;;;;;;;;;4993237;28;20893;-63
2023/09/06 09:49:29;;;;;;;5.87;4.13;;;;;;;;;;4993179;28;20423;-63
2023/09/06 09:51:55;;;;;;;4.53;3.70;;;;;;;;;;4993296;28;20433;-66
2023/09/06 09:54:21;;;;;;;4.10;3.90;;;;;;;;;;4993111;28;20417;-66
2023/09/06 09:56:57;;;;;;;4.73;4.07;;;;;;;;;;4993113;28;20444;-66
2023/09/06 09:59:23;;;;;;;3.63;3.40;;;;;;;;;;4993123;28;20457;-66
2023/09/06 10:01:51;;;;;;;4.17;3.80;;;;;;;;;;4993180;28;20421;-66
2023/09/06 10:04:19;;;;;;;7.43;3.70;;;;;;;;;;4993059;28;20499;-64
2023/09/06 10:06:47;;;;;;;5.53;4.17;;;;;;;;;;4993094;28;20929;-64
2023/09/06 10:09:19;;;;;;;3.50;3.40;;;;;;;;;;4993007;28;20852;-64
2023/09/06 10:11:48;;;;;;;7.43;4.30;;;;;;;;;;4993271;28;20520;-64
2023/09/06 10:14:15;;;;;;;9.83;4.50;;;;;;;;;;4991775;28;20499;-64
2023/09/06 10:16:41;;;;;;;8.27;4.13;;;;;;;;;;4992943;28;21033;-65
2023/09/06 10:19:08;;;;;;;6.63;6.03;;;;;;;;;;4992952;28;20924;-66
2023/09/06 10:21:34;;;;;;;12.00;10.00;;;;;;;;;;4992896;28;20584;-66
2023/09/06 10:24:00;;;;;;;8.23;3.83;;;;;;;;;;4992947;28;20473;-64
2023/09/06 10:26:30;;;;;;;4.13;3.83;;;;;;;;;;4992809;28;20520;-64
2023/09/06 10:28:59;;;;;;;9.37;3.73;;;;;;;;;;4991599;28;20426;-64
2023/09/06 10:31:54;;;;;;;4.03;3.73;;;;;;;;;;4995056;28;20445;-64
2023/09/06 10:34:20;;;;;;;5.63;3.47;;;;;;;;;;4991229;28;20445;-64
2023/09/06 10:36:56;;;;;;;3.77;3.50;;;;;;;;;;4996651;28;20967;-64
2023/09/06 10:39:25;;;;;;;4.17;3.87;;;;;;;;;;4996539;28;20771;-64
2023/09/06 10:42:15;;;;;;;6.13;3.80;;;;;;;;;;4996463;28;20453;-64
2023/09/06 10:44:58;;;;;;;7.20;5.07;;;;;;;;;;4996438;28;20449;-64
2023/09/06 10:47:24;;;;;;;7.03;5.17;;;;;;;;;;4996617;28;20456;-64
2023/09/06 10:50:09;;;;;;;10.47;3.27;;;;;;;;;;4996393;28;20414;-64
2023/09/06 10:52:46;;;;;;;3.50;3.20;;;;;;;;;;4996312;28;20831;-64
2023/09/06 10:55:14;;;;;;;7.20;3.97;;;;;;;;;;4996350;28;20904;-64
2023/09/06 10:57:48;;;;;;;6.00;3.10;;;;;;;;;;4996191;28;20441;-64
2023/09/06 11:00:18;;;;;;;4.73;3.00;;;;;;;;;;4996310;28;20547;-64
2023/09/06 11:02:44;;;;;;;5.17;3.53;;;;;;;;;;4996123;28;20777;-64
2023/09/06 11:05:16;;;;;;;8.83;4.17;;;;;;;;;;4996297;28;20468;-64
2023/09/06 11:07:45;;;;;;;6.47;3.17;;;;;;;;;;4996153;28;20398;-64
2023/09/06 11:10:12;;;;;;;11.40;3.53;;;;;;;;;;4996025;28;20418;-64
2023/09/06 11:12:38;;;;;;;3.87;3.40;;;;;;;;;;4996274;28;20421;-64
2023/09/06 11:15:05;;;;;;;3.90;3.17;;;;;;;;;;4995979;28;20414;-64
2023/09/06 11:17:32;;;;;;;3.10;2.87;;;;;;;;;;4995811;28;20433;-64
2023/09/06 11:20:09;;;;;;;3.07;2.80;;;;;;;;;;4995856;28;20413;-64
2023/09/06 11:22:38;;;;;;;8.47;2.90;;;;;;;;;;4995818;28;20448;-64
2023/09/06 11:25:17;;;;;;;3.20;2.90;;;;;;;;;;4995587;28;20461;-64
2023/09/06 11:27:45;;;;;;;2.80;2.70;;;;;;;;;;4995303;28;20452;-64
2023/09/06 11:30:15;;;;;;;3.50;3.20;;;;;;;;;;4995524;28;20439;-64
2023/09/06 11:32:44;;;;;;;2.57;2.57;;;;;;;;;;4995503;28;20468;-64
2023/09/06 11:35:10;;;;;;;6.37;3.10;;;;;;;;;;4995575;28;20441;-64
2023/09/06 11:37:41;;;;;;;3.10;2.73;;;;;;;;;;4995627;28;20455;-64
2023/09/06 11:40:19;;;;;;;2.90;2.80;;;;;;;;;;4995568;28;20398;-64
2023/09/06 11:42:48;;;;;;;7.10;2.33;;;;;;;;;;4994414;28;20453;-64
2023/09/06 11:45:17;;;;;;;3.47;3.17;;;;;;;;;;4995320;28;20492;-64
2023/09/06 11:47:44;;;;;;;2.70;2.60;;;;;;;;;;4995220;28;20485;-64
2023/09/06 11:50:12;;;;;;;7.93;3.03;;;;;;;;;;4995262;28;20426;-64
2023/09/06 11:52:43;;;;;;;2.77;2.70;;;;;;;;;;4995248;28;20468;-64
2023/09/06 11:55:09;;;;;;;6.17;3.13;;;;;;;;;;4995129;28;20410;-64
2023/09/06 11:57:41;;;;;;;3.27;3.07;;;;;;;;;;4995178;28;20446;-64
2023/09/06 12:00:27;;;;;;;2.57;2.47;;;;;;;;;;4995034;28;20475;-64
2023/09/06 12:02:54;;;;;;;6.50;2.60;;;;;;;;;;4995074;28;20496;-64
2023/09/06 12:05:23;;;;;;;2.80;2.60;;;;;;;;;;4995097;28;20867;-64
2023/09/06 12:07:50;;;;;;;2.80;2.30;;;;;;;;;;4995131;28;20805;-64
2023/09/06 12:10:23;;;;;;;3.13;2.60;;;;;;;;;;4995004;28;20445;-63
2023/09/06 12:12:52;;;;;;;2.40;2.40;;;;;;;;;;4994780;28;20960;-64
2023/09/06 12:15:19;;;;;;;2.40;2.30;;;;;;;;;;4994971;28;20773;-64
2023/09/06 12:17:48;;;;;;;2.30;2.30;;;;;;;;;;4993472;28;20449;-64
2023/09/06 12:20:23;;;;;;;2.10;2.00;;;;;;;;;;4994749;28;20422;-64
2023/09/06 12:22:49;;;;;;;2.30;2.10;;;;;;;;;;4994579;28;20444;-64
2023/09/06 12:25:18;;;;;;;3.87;2.60;;;;;;;;;;4994595;28;20949;-64
2023/09/06 12:27:44;;;;;;;2.10;2.00;;;;;;;;;;4994140;28;20446;-64
2023/09/06 12:30:14;;;;;;;2.67;2.57;;;;;;;;;;4994508;28;20417;-64
2023/09/06 12:32:46;;;;;;;2.60;2.40;;;;;;;;;;4993100;28;20441;-64
2023/09/06 12:35:13;;;;;;;2.23;2.03;;;;;;;;;;4994422;28;20437;-64
2023/09/06 12:37:40;;;;;;;2.10;2.00;;;;;;;;;;4993110;28;20453;-64
2023/09/06 12:40:10;;;;;;;2.57;2.47;;;;;;;;;;4993064;28;20429;-64
2023/09/06 12:42:46;;;;;;;2.93;2.40;;;;;;;;;;4994253;28;20428;-64
2023/09/06 12:45:18;;;;;;;2.37;2.27;;;;;;;;;;4994251;28;20507;-64
2023/09/06 12:47:44;;;;;;;2.70;2.50;;;;;;;;;;4993562;28;20457;-64
2023/09/06 12:50:12;;;;;;;2.33;2.13;;;;;;;;;;4994219;28;20901;-64
2023/09/06 12:52:38;;;;;;;2.80;2.60;;;;;;;;;;4994064;28;20807;-64
2023/09/06 12:55:05;;;;;;;2.60;2.50;;;;;;;;;;4993662;28;20825;-64
2023/09/06 12:57:31;;;;;;;3.43;3.20;;;;;;;;;;4993722;28;20425;-64
2023/09/06 12:59:58;;;;;;;2.70;2.37;;;;;;;;;;4993980;28;20402;-64
2023/09/06 13:02:25;;;;;;;2.77;2.67;;;;;;;;;;4994002;28;20445;-64
2023/09/06 13:04:54;;;;;;;3.80;2.63;;;;;;;;;;4993888;28;20830;-64
2023/09/06 13:07:20;;;;;;;3.07;2.80;;;;;;;;;;4993847;28;20414;-64
2023/09/06 13:09:46;;;;;;;2.93;2.73;;;;;;;;;;4993661;28;20536;-64
2023/09/06 13:12:12;;;;;;;2.63;2.53;;;;;;;;;;4993687;28;20434;-64
2023/09/06 13:14:38;;;;;;;4.80;4.37;;;;;;;;;;4993576;28;20421;-64
2023/09/06 13:17:04;;;;;;;5.50;3.30;;;;;;;;;;4993476;28;20441;-64
2023/09/06 13:19:30;;;;;;;8.73;3.57;;;;;;;;;;4992567;28;20629;-64
2023/09/06 13:21:56;;;;;;;4.37;3.40;;;;;;;;;;4993587;28;20430;-64
2023/09/06 13:24:22;;;;;;;3.47;3.30;;;;;;;;;;4993580;28;20461;-64
2023/09/06 13:26:53;;;;;;;3.50;3.20;;;;;;;;;;4993315;28;20448;-64
2023/09/06 13:29:19;;;;;;;3.57;3.37;;;;;;;;;;4992601;28;20925;-64
2023/09/06 13:31:45;;;;;;;9.20;3.87;;;;;;;;;;4993642;28;20414;-64
2023/09/06 13:34:11;;;;;;;3.23;3.03;;;;;;;;;;4993634;28;20485;-64
2023/09/06 13:36:37;;;;;;;3.50;3.40;;;;;;;;;;4993498;28;20857;-64
2023/09/06 13:39:07;;;;;;;5.20;5.00;;;;;;;;;;4993288;28;20799;-64
2023/09/06 13:41:36;;;;;;;3.87;3.53;;;;;;;;;;4993369;28;20956;-64
2023/09/06 13:44:02;;;;;;;4.40;3.60;;;;;;;;;;4993222;28;20971;-64
2023/09/06 13:46:28;;;;;;;4.27;3.87;;;;;;;;;;4993375;28;20501;-64
2023/09/06 13:49:00;;;;;;;4.03;3.30;;;;;;;;;;4993141;28;20559;-64
2023/09/06 13:51:29;;;;;;;7.40;6.87;;;;;;;;;;4993286;28;20450;-64
2023/09/06 13:53:56;;;;;;;4.87;4.27;;;;;;;;;;4993467;28;20437;-64
2023/09/06 13:56:22;;;;;;;4.03;3.93;;;;;;;;;;4993278;28;20791;-64
2023/09/06 13:58:49;;;;;;;5.03;3.63;;;;;;;;;;4992987;28;20963;-64
2023/09/06 14:01:17;;;;;;;8.10;4.07;;;;;;;;;;4993332;28;20508;-64
2023/09/06 14:03:43;;;;;;;3.60;3.50;;;;;;;;;;4993059;28;20569;-64
2023/09/06 14:06:12;;;;;;;3.77;3.67;;;;;;;;;;4995109;28;20432;-64
2023/09/06 14:08:38;;;;;;;4.63;4.10;;;;;;;;;;4995935;28;20433;-64
2023/09/06 14:11:04;;;;;;;4.03;3.67;;;;;;;;;;4997083;28;20516;-64
2023/09/06 14:13:30;;;;;;;4.20;4.00;;;;;;;;;;4997433;28;20936;-64
2023/09/06 14:15:56;;;;;;;4.53;4.20;;;;;;;;;;4996806;28;20413;-64
2023/09/06 14:18:22;;;;;;;4.00;3.70;;;;;;;;;;4996918;28;20441;-64
2023/09/06 14:20:49;;;;;;;3.80;3.57;;;;;;;;;;4996920;28;20418;-64
2023/09/06 14:23:15;;;;;;;6.93;3.83;;;;;;;;;;4996704;28;20452;-64
2023/09/06 14:25:42;;;;;;;12.80;11.80;;;;;;;;;;4996950;28;20417;-64
2023/09/06 14:28:08;;;;;;;6.30;3.90;;;;;;;;;;4996730;28;20880;-64
2023/09/06 14:30:38;;;;;;;4.43;4.13;;;;;;;;;;4996918;28;20413;-64
2023/09/06 14:33:05;;;;;;;5.23;3.80;;;;;;;;;;4996423;28;20438;-64
2023/09/06 14:35:31;;;;;;;4.10;3.70;;;;;;;;;;4996629;28;20472;-65
2023/09/06 14:37:57;;;;;;;3.33;3.00;;;;;;;;;;4995347;28;20449;-65
2023/09/06 14:40:23;;;;;;;9.13;3.03;;;;;;;;;;4996728;28;20453;-66
2023/09/06 14:42:49;;;;;;;3.10;3.00;;;;;;;;;;4996524;28;20503;-65
2023/09/06 14:45:18;;;;;;;3.57;3.40;;;;;;;;;;4996458;28;20465;-65
2023/09/06 14:47:44;;;;;;;3.83;3.53;;;;;;;;;;4995081;28;20465;-65
2023/09/06 14:50:10;;;;;;;3.53;3.27;;;;;;;;;;4996473;28;20843;-65